sensor_id;sensor_type;location;lat;lon;timestamp;temperature;humidity
15384;DHT22;7790;53.022;12.968;2023-05-07T00:02:18;19.20;49.90
15384;DHT22;7790;53.022;12.968;2023-05-07T00:06:19;19.20;50.00
15384;DHT22;7790;53.022;12.968;2023-05-07T00:10:20;19.10;49.90
15384;DHT22;7790;53.022;12.968;2023-05-07T00:14:21;19.10;50.00
15384;DHT22;7790;53.022;12.968;2023-05-07T00:18:22;19.10;49.90
15384;DHT22;7790;53.022;12.968;2023-05-07T00:22:23;19.10;49.90
15384;DHT22;7790;53.022;12.968;2023-05-07T00:26:24;19.10;49.90
15384;DHT22;7790;53.022;12.968;2023-05-07T00:30:26;19.10;49.90
15384;DHT22;7790;53.022;12.968;2023-05-07T00:34:27;19.10;49.90
15384;DHT22;7790;53.022;12.968;2023-05-07T00:38:28;19.10;49.90
15384;DHT22;7790;53.022;12.968;2023-05-07T00:42:29;19.10;49.90
15384;DHT22;7790;53.022;12.968;2023-05-07T00:46:30;19.10;49.90
15384;DHT22;7790;53.022;12.968;2023-05-07T00:50:32;19.10;49.90
15384;DHT22;7790;53.022;12.968;2023-05-07T00:54:34;19.00;49.80
15384;DHT22;7790;53.022;12.968;2023-05-07T00:58:36;19.00;49.90
15384;DHT22;7790;53.022;12.968;2023-05-07T01:02:38;19.00;49.90
15384;DHT22;7790;53.022;12.968;2023-05-07T01:06:40;19.00;49.90
15384;DHT22;7790;53.022;12.968;2023-05-07T01:10:42;18.90;49.90
15384;DHT22;7790;53.022;12.968;2023-05-07T01:14:43;19.00;50.00
15384;DHT22;7790;53.022;12.968;2023-05-07T01:18:44;19.00;50.00
15384;DHT22;7790;53.022;12.968;2023-05-07T01:22:49;19.00;50.00
15384;DHT22;7790;53.022;12.968;2023-05-07T01:26:50;18.90;50.00
15384;DHT22;7790;53.022;12.968;2023-05-07T01:30:55;18.90;49.90
15384;DHT22;7790;53.022;12.968;2023-05-07T01:35:01;18.90;50.00
15384;DHT22;7790;53.022;12.968;2023-05-07T01:39:03;18.90;50.00
15384;DHT22;7790;53.022;12.968;2023-05-07T01:43:06;18.90;50.00
15384;DHT22;7790;53.022;12.968;2023-05-07T01:47:10;18.90;50.00
15384;DHT22;7790;53.022;12.968;2023-05-07T01:51:11;18.90;49.90
15384;DHT22;7790;53.022;12.968;2023-05-07T01:55:12;18.80;49.90
15384;DHT22;7790;53.022;12.968;2023-05-07T01:59:14;18.80;49.90
15384;DHT22;7790;53.022;12.968;2023-05-07T02:03:15;18.80;49.80
15384;DHT22;7790;53.022;12.968;2023-05-07T02:07:24;18.80;49.90
15384;DHT22;7790;53.022;12.968;2023-05-07T02:11:25;18.80;49.90
15384;DHT22;7790;53.022;12.968;2023-05-07T02:15:26;18.80;49.90
15384;DHT22;7790;53.022;12.968;2023-05-07T02:19:27;18.80;49.90
15384;DHT22;7790;53.022;12.968;2023-05-07T02:23:28;18.80;49.90
15384;DHT22;7790;53.022;12.968;2023-05-07T02:27:29;18.80;49.90
15384;DHT22;7790;53.022;12.968;2023-05-07T02:31:30;18.80;49.90
15384;DHT22;7790;53.022;12.968;2023-05-07T02:35:31;18.80;49.90
15384;DHT22;7790;53.022;12.968;2023-05-07T02:39:32;18.70;49.80
15384;DHT22;7790;53.022;12.968;2023-05-07T02:43:34;18.70;49.80
15384;DHT22;7790;53.022;12.968;2023-05-07T02:47:35;18.70;49.80
15384;DHT22;7790;53.022;12.968;2023-05-07T02:51:36;18.70;49.90
15384;DHT22;7790;53.022;12.968;2023-05-07T02:55:43;18.70;49.90
15384;DHT22;7790;53.022;12.968;2023-05-07T02:59:44;18.70;50.00
15384;DHT22;7790;53.022;12.968;2023-05-07T03:03:46;18.70;49.80
15384;DHT22;7790;53.022;12.968;2023-05-07T03:07:47;18.70;49.80
15384;DHT22;7790;53.022;12.968;2023-05-07T03:11:49;18.70;49.90
15384;DHT22;7790;53.022;12.968;2023-05-07T03:15:50;18.60;49.80
15384;DHT22;7790;53.022;12.968;2023-05-07T03:19:51;18.70;49.80
15384;DHT22;7790;53.022;12.968;2023-05-07T03:23:53;18.60;49.80
15384;DHT22;7790;53.022;12.968;2023-05-07T03:27:54;18.60;49.70
15384;DHT22;7790;53.022;12.968;2023-05-07T03:31:58;18.60;49.80
15384;DHT22;7790;53.022;12.968;2023-05-07T03:35:59;18.60;49.80
15384;DHT22;7790;53.022;12.968;2023-05-07T03:40:02;18.60;49.80
15384;DHT22;7790;53.022;12.968;2023-05-07T03:44:07;18.60;49.80
15384;DHT22;7790;53.022;12.968;2023-05-07T03:48:08;18.60;49.80
15384;DHT22;7790;53.022;12.968;2023-05-07T03:52:09;18.60;49.80
15384;DHT22;7790;53.022;12.968;2023-05-07T03:56:10;18.50;49.70
15384;DHT22;7790;53.022;12.968;2023-05-07T04:00:14;18.50;49.80
15384;DHT22;7790;53.022;12.968;2023-05-07T04:04:21;18.50;49.70
15384;DHT22;7790;53.022;12.968;2023-05-07T04:08:22;18.50;49.70
15384;DHT22;7790;53.022;12.968;2023-05-07T04:12:27;18.50;49.80
15384;DHT22;7790;53.022;12.968;2023-05-07T04:16:28;18.50;50.20
15384;DHT22;7790;53.022;12.968;2023-05-07T04:20:29;18.50;49.70
15384;DHT22;7790;53.022;12.968;2023-05-07T04:24:37;18.50;49.70
15384;DHT22;7790;53.022;12.968;2023-05-07T04:28:39;18.50;49.70
15384;DHT22;7790;53.022;12.968;2023-05-07T04:32:41;18.50;49.70
15384;DHT22;7790;53.022;12.968;2023-05-07T04:36:42;18.50;49.70
15384;DHT22;7790;53.022;12.968;2023-05-07T04:40:46;18.50;49.70
15384;DHT22;7790;53.022;12.968;2023-05-07T04:44:53;18.40;49.70
15384;DHT22;7790;53.022;12.968;2023-05-07T04:48:55;18.40;49.70
15384;DHT22;7790;53.022;12.968;2023-05-07T04:52:56;18.40;49.60
15384;DHT22;7790;53.022;12.968;2023-05-07T04:56:58;18.40;49.60
15384;DHT22;7790;53.022;12.968;2023-05-07T05:00:59;18.40;49.80
15384;DHT22;7790;53.022;12.968;2023-05-07T05:05:01;18.50;50.10
15384;DHT22;7790;53.022;12.968;2023-05-07T05:09:03;18.70;50.10
15384;DHT22;7790;53.022;12.968;2023-05-07T05:13:07;18.90;49.90
15384;DHT22;7790;53.022;12.968;2023-05-07T05:17:09;19.10;49.90
15384;DHT22;7790;53.022;12.968;2023-05-07T05:21:11;19.30;49.60
15384;DHT22;7790;53.022;12.968;2023-05-07T05:25:13;19.40;49.40
15384;DHT22;7790;53.022;12.968;2023-05-07T05:29:13;19.50;49.20
15384;DHT22;7790;53.022;12.968;2023-05-07T05:33:17;19.60;49.10
15384;DHT22;7790;53.022;12.968;2023-05-07T05:37:18;19.70;49.10
15384;DHT22;7790;53.022;12.968;2023-05-07T05:41:20;19.80;49.10
15384;DHT22;7790;53.022;12.968;2023-05-07T05:45:21;19.90;49.10
15384;DHT22;7790;53.022;12.968;2023-05-07T05:49:22;19.60;48.00
15384;DHT22;7790;53.022;12.968;2023-05-07T05:53:24;19.60;48.60
15384;DHT22;7790;53.022;12.968;2023-05-07T05:57:24;19.80;49.20
15384;DHT22;7790;53.022;12.968;2023-05-07T06:01:25;20.00;49.20
15384;DHT22;7790;53.022;12.968;2023-05-07T06:05:28;20.20;49.10
15384;DHT22;7790;53.022;12.968;2023-05-07T06:09:31;20.30;49.10
15384;DHT22;7790;53.022;12.968;2023-05-07T06:13:32;20.30;49.00
15384;DHT22;7790;53.022;12.968;2023-05-07T06:17:34;20.40;49.00
15384;DHT22;7790;53.022;12.968;2023-05-07T06:21:35;20.40;49.00
15384;DHT22;7790;53.022;12.968;2023-05-07T06:25:36;20.40;49.00
15384;DHT22;7790;53.022;12.968;2023-05-07T06:29:36;20.30;49.10
15384;DHT22;7790;53.022;12.968;2023-05-07T06:33:50;20.30;49.20
15384;DHT22;7790;53.022;12.968;2023-05-07T06:37:51;20.30;49.40
15384;DHT22;7790;53.022;12.968;2023-05-07T06:41:57;20.30;49.40
15384;DHT22;7790;53.022;12.968;2023-05-07T06:46:04;20.40;49.50
15384;DHT22;7790;53.022;12.968;2023-05-07T06:50:05;20.40;49.40
15384;DHT22;7790;53.022;12.968;2023-05-07T06:54:07;20.50;49.20
15384;DHT22;7790;53.022;12.968;2023-05-07T06:58:11;20.50;49.40
15384;DHT22;7790;53.022;12.968;2023-05-07T07:02:12;20.60;49.30
15384;DHT22;7790;53.022;12.968;2023-05-07T07:06:14;20.70;49.30
15384;DHT22;7790;53.022;12.968;2023-05-07T07:10:16;20.70;49.20
15384;DHT22;7790;53.022;12.968;2023-05-07T07:14:17;20.80;49.20
15384;DHT22;7790;53.022;12.968;2023-05-07T07:18:23;20.80;49.10
15384;DHT22;7790;53.022;12.968;2023-05-07T07:22:25;20.80;49.00
15384;DHT22;7790;53.022;12.968;2023-05-07T07:26:26;20.80;49.00
15384;DHT22;7790;53.022;12.968;2023-05-07T07:30:27;20.80;49.00
15384;DHT22;7790;53.022;12.968;2023-05-07T07:34:28;20.70;49.00
15384;DHT22;7790;53.022;12.968;2023-05-07T07:38:30;20.70;49.00
15384;DHT22;7790;53.022;12.968;2023-05-07T07:42:31;20.60;49.00
15384;DHT22;7790;53.022;12.968;2023-05-07T07:46:33;20.70;49.20
15384;DHT22;7790;53.022;12.968;2023-05-07T07:50:34;20.70;49.50
15384;DHT22;7790;53.022;12.968;2023-05-07T07:54:35;20.70;49.70
15384;DHT22;7790;53.022;12.968;2023-05-07T07:58:37;20.80;49.80
15384;DHT22;7790;53.022;12.968;2023-05-07T08:02:40;20.90;49.80
15384;DHT22;7790;53.022;12.968;2023-05-07T08:06:41;20.90;49.90
15384;DHT22;7790;53.022;12.968;2023-05-07T08:10:43;21.00;50.00
15384;DHT22;7790;53.022;12.968;2023-05-07T08:14:52;20.90;50.00
15384;DHT22;7790;53.022;12.968;2023-05-07T08:18:54;20.90;49.80
15384;DHT22;7790;53.022;12.968;2023-05-07T08:22:55;20.90;49.80
15384;DHT22;7790;53.022;12.968;2023-05-07T08:26:56;20.90;49.90
15384;DHT22;7790;53.022;12.968;2023-05-07T08:30:57;21.00;49.70
15384;DHT22;7790;53.022;12.968;2023-05-07T08:35:02;21.00;49.60
15384;DHT22;7790;53.022;12.968;2023-05-07T08:39:03;21.00;49.70
15384;DHT22;7790;53.022;12.968;2023-05-07T08:43:06;21.00;49.60
15384;DHT22;7790;53.022;12.968;2023-05-07T08:47:08;20.80;48.30
15384;DHT22;7790;53.022;12.968;2023-05-07T08:51:16;20.60;49.40
15384;DHT22;7790;53.022;12.968;2023-05-07T08:55:18;20.80;49.40
15384;DHT22;7790;53.022;12.968;2023-05-07T08:59:20;20.90;49.00
15384;DHT22;7790;53.022;12.968;2023-05-07T09:03:21;21.00;48.80
15384;DHT22;7790;53.022;12.968;2023-05-07T09:07:25;21.00;48.80
15384;DHT22;7790;53.022;12.968;2023-05-07T09:11:27;21.00;48.90
15384;DHT22;7790;53.022;12.968;2023-05-07T09:15:31;21.00;48.80
15384;DHT22;7790;53.022;12.968;2023-05-07T09:19:33;21.00;48.80
15384;DHT22;7790;53.022;12.968;2023-05-07T09:23:38;21.00;48.90
15384;DHT22;7790;53.022;12.968;2023-05-07T09:27:41;21.00;48.90
15384;DHT22;7790;53.022;12.968;2023-05-07T09:31:43;21.00;48.70
15384;DHT22;7790;53.022;12.968;2023-05-07T09:35:51;21.00;49.00
15384;DHT22;7790;53.022;12.968;2023-05-07T09:39:53;21.00;48.80
15384;DHT22;7790;53.022;12.968;2023-05-07T09:43:57;21.00;49.00
15384;DHT22;7790;53.022;12.968;2023-05-07T09:48:05;21.00;48.90
15384;DHT22;7790;53.022;12.968;2023-05-07T09:52:08;21.00;48.70
15384;DHT22;7790;53.022;12.968;2023-05-07T09:56:14;21.00;48.70
15384;DHT22;7790;53.022;12.968;2023-05-07T10:00:18;21.00;48.60
15384;DHT22;7790;53.022;12.968;2023-05-07T10:04:22;21.00;48.70
15384;DHT22;7790;53.022;12.968;2023-05-07T10:08:26;20.90;48.70
15384;DHT22;7790;53.022;12.968;2023-05-07T10:12:31;20.90;48.60
15384;DHT22;7790;53.022;12.968;2023-05-07T10:16:38;20.90;48.80
15384;DHT22;7790;53.022;12.968;2023-05-07T10:20:47;20.90;48.80
15384;DHT22;7790;53.022;12.968;2023-05-07T10:24:50;21.00;45.90
15384;DHT22;7790;53.022;12.968;2023-05-07T10:29:02;20.80;43.80
15384;DHT22;7790;53.022;12.968;2023-05-07T10:33:08;20.10;41.80
15384;DHT22;7790;53.022;12.968;2023-05-07T10:37:13;19.90;42.30
15384;DHT22;7790;53.022;12.968;2023-05-07T10:41:14;19.70;42.00
15384;DHT22;7790;53.022;12.968;2023-05-07T10:45:18;19.70;41.60
15384;DHT22;7790;53.022;12.968;2023-05-07T10:49:23;19.50;41.70
15384;DHT22;7790;53.022;12.968;2023-05-07T10:53:30;19.00;42.80
15384;DHT22;7790;53.022;12.968;2023-05-07T10:57:37;19.10;42.30
15384;DHT22;7790;53.022;12.968;2023-05-07T11:01:54;18.90;41.90
15384;DHT22;7790;53.022;12.968;2023-05-07T11:06:15;18.80;42.00
15384;DHT22;7790;53.022;12.968;2023-05-07T11:10:32;18.70;41.90
15384;DHT22;7790;53.022;12.968;2023-05-07T11:14:53;18.80;42.10
15384;DHT22;7790;53.022;12.968;2023-05-07T11:19:08;18.70;41.90
15384;DHT22;7790;53.022;12.968;2023-05-07T11:27:42;18.70;42.80
15384;DHT22;7790;53.022;12.968;2023-05-07T11:31:43;18.60;42.70
15384;DHT22;7790;53.022;12.968;2023-05-07T11:35:45;18.80;43.30
15384;DHT22;7790;53.022;12.968;2023-05-07T11:39:48;18.70;42.20
15384;DHT22;7790;53.022;12.968;2023-05-07T11:43:56;18.80;43.20
15384;DHT22;7790;53.022;12.968;2023-05-07T11:47:57;18.90;43.10
15384;DHT22;7790;53.022;12.968;2023-05-07T11:51:58;18.90;43.20
15384;DHT22;7790;53.022;12.968;2023-05-07T11:55:59;18.80;42.30
15384;DHT22;7790;53.022;12.968;2023-05-07T12:00:01;18.80;42.90
15384;DHT22;7790;53.022;12.968;2023-05-07T12:04:13;18.60;42.10
15384;DHT22;7790;53.022;12.968;2023-05-07T12:08:14;18.50;42.30
15384;DHT22;7790;53.022;12.968;2023-05-07T12:12:16;18.70;43.00
15384;DHT22;7790;53.022;12.968;2023-05-07T12:16:18;18.40;42.30
15384;DHT22;7790;53.022;12.968;2023-05-07T12:20:20;18.40;42.90
15384;DHT22;7790;53.022;12.968;2023-05-07T12:24:21;18.70;42.80
15384;DHT22;7790;53.022;12.968;2023-05-07T12:28:22;18.60;42.50
15384;DHT22;7790;53.022;12.968;2023-05-07T12:32:23;18.40;42.50
15384;DHT22;7790;53.022;12.968;2023-05-07T12:36:24;18.40;42.20
15384;DHT22;7790;53.022;12.968;2023-05-07T12:44:37;18.30;43.20
15384;DHT22;7790;53.022;12.968;2023-05-07T12:48:43;18.40;42.80
15384;DHT22;7790;53.022;12.968;2023-05-07T12:52:45;18.40;42.80
15384;DHT22;7790;53.022;12.968;2023-05-07T12:56:47;18.20;42.50
15384;DHT22;7790;53.022;12.968;2023-05-07T13:00:49;18.20;42.80
15384;DHT22;7790;53.022;12.968;2023-05-07T13:04:50;18.20;42.80
15384;DHT22;7790;53.022;12.968;2023-05-07T13:08:51;18.10;43.70
15384;DHT22;7790;53.022;12.968;2023-05-07T13:12:52;17.80;42.20
15384;DHT22;7790;53.022;12.968;2023-05-07T13:16:53;18.00;42.80
15384;DHT22;7790;53.022;12.968;2023-05-07T13:20:54;18.10;42.40
15384;DHT22;7790;53.022;12.968;2023-05-07T13:24:55;18.10;41.90
15384;DHT22;7790;53.022;12.968;2023-05-07T13:28:56;18.00;42.30
15384;DHT22;7790;53.022;12.968;2023-05-07T13:32:57;18.10;42.10
15384;DHT22;7790;53.022;12.968;2023-05-07T13:36:58;18.10;41.70
15384;DHT22;7790;53.022;12.968;2023-05-07T13:40:59;18.00;42.40
15384;DHT22;7790;53.022;12.968;2023-05-07T13:44:59;18.00;42.20
15384;DHT22;7790;53.022;12.968;2023-05-07T13:49:01;18.10;42.90
15384;DHT22;7790;53.022;12.968;2023-05-07T13:53:02;18.50;43.40
15384;DHT22;7790;53.022;12.968;2023-05-07T13:57:03;18.60;43.40
15384;DHT22;7790;53.022;12.968;2023-05-07T14:01:04;18.70;43.60
15384;DHT22;7790;53.022;12.968;2023-05-07T14:05:05;18.90;43.70
15384;DHT22;7790;53.022;12.968;2023-05-07T14:09:06;19.00;43.90
15384;DHT22;7790;53.022;12.968;2023-05-07T14:13:06;19.20;44.10
15384;DHT22;7790;53.022;12.968;2023-05-07T14:17:07;19.40;44.10
15384;DHT22;7790;53.022;12.968;2023-05-07T14:21:09;19.50;43.90
15384;DHT22;7790;53.022;12.968;2023-05-07T14:25:10;19.60;44.30
15384;DHT22;7790;53.022;12.968;2023-05-07T14:29:11;19.70;44.30
15384;DHT22;7790;53.022;12.968;2023-05-07T14:33:12;19.60;44.20
15384;DHT22;7790;53.022;12.968;2023-05-07T14:37:13;19.60;44.40
15384;DHT22;7790;53.022;12.968;2023-05-07T14:41:14;19.60;44.20
15384;DHT22;7790;53.022;12.968;2023-05-07T14:45:17;19.60;43.80
15384;DHT22;7790;53.022;12.968;2023-05-07T14:49:18;19.60;43.40
15384;DHT22;7790;53.022;12.968;2023-05-07T14:53:19;19.50;44.20
15384;DHT22;7790;53.022;12.968;2023-05-07T14:57:19;19.50;44.30
15384;DHT22;7790;53.022;12.968;2023-05-07T15:01:21;19.50;43.90
15384;DHT22;7790;53.022;12.968;2023-05-07T15:05:22;19.50;44.40
15384;DHT22;7790;53.022;12.968;2023-05-07T15:09:23;19.40;44.40
15384;DHT22;7790;53.022;12.968;2023-05-07T15:13:23;19.40;43.50
15384;DHT22;7790;53.022;12.968;2023-05-07T15:17:24;19.40;44.00
15384;DHT22;7790;53.022;12.968;2023-05-07T15:21:25;19.40;43.80
15384;DHT22;7790;53.022;12.968;2023-05-07T15:25:27;19.40;43.80
15384;DHT22;7790;53.022;12.968;2023-05-07T15:29:28;19.40;43.70
15384;DHT22;7790;53.022;12.968;2023-05-07T15:33:31;19.50;43.90
15384;DHT22;7790;53.022;12.968;2023-05-07T15:37:32;19.40;44.30
15384;DHT22;7790;53.022;12.968;2023-05-07T15:41:33;19.40;45.10
15384;DHT22;7790;53.022;12.968;2023-05-07T15:45:41;19.60;45.40
15384;DHT22;7790;53.022;12.968;2023-05-07T15:49:42;19.70;45.50
15384;DHT22;7790;53.022;12.968;2023-05-07T15:53:44;19.90;45.50
15384;DHT22;7790;53.022;12.968;2023-05-07T15:57:44;20.00;45.10
15384;DHT22;7790;53.022;12.968;2023-05-07T16:01:45;20.20;44.90
15384;DHT22;7790;53.022;12.968;2023-05-07T16:05:46;20.40;45.20
15384;DHT22;7790;53.022;12.968;2023-05-07T16:09:47;20.40;45.20
15384;DHT22;7790;53.022;12.968;2023-05-07T16:13:48;20.40;45.30
15384;DHT22;7790;53.022;12.968;2023-05-07T16:17:49;20.30;45.20
15384;DHT22;7790;53.022;12.968;2023-05-07T16:21:51;20.30;45.20
15384;DHT22;7790;53.022;12.968;2023-05-07T16:25:52;20.30;45.40
15384;DHT22;7790;53.022;12.968;2023-05-07T16:29:53;20.30;45.30
15384;DHT22;7790;53.022;12.968;2023-05-07T16:33:54;20.20;45.30
15384;DHT22;7790;53.022;12.968;2023-05-07T16:37:55;20.20;45.50
15384;DHT22;7790;53.022;12.968;2023-05-07T16:41:56;20.10;45.50
15384;DHT22;7790;53.022;12.968;2023-05-07T16:45:57;20.10;45.50
15384;DHT22;7790;53.022;12.968;2023-05-07T16:49:58;20.10;45.60
15384;DHT22;7790;53.022;12.968;2023-05-07T16:54:00;20.10;45.70
15384;DHT22;7790;53.022;12.968;2023-05-07T16:58:01;20.00;45.30
15384;DHT22;7790;53.022;12.968;2023-05-07T17:02:02;19.90;43.70
15384;DHT22;7790;53.022;12.968;2023-05-07T17:06:03;19.90;44.90
15384;DHT22;7790;53.022;12.968;2023-05-07T17:10:04;19.90;44.90
15384;DHT22;7790;53.022;12.968;2023-05-07T17:14:05;19.90;45.10
15384;DHT22;7790;53.022;12.968;2023-05-07T17:18:06;19.90;45.10
15384;DHT22;7790;53.022;12.968;2023-05-07T17:22:07;19.90;45.10
15384;DHT22;7790;53.022;12.968;2023-05-07T17:26:15;19.80;45.10
15384;DHT22;7790;53.022;12.968;2023-05-07T17:30:16;19.80;45.20
15384;DHT22;7790;53.022;12.968;2023-05-07T17:34:17;19.70;45.10
15384;DHT22;7790;53.022;12.968;2023-05-07T17:38:18;19.80;45.50
15384;DHT22;7790;53.022;12.968;2023-05-07T17:42:19;19.80;46.10
15384;DHT22;7790;53.022;12.968;2023-05-07T17:46:20;19.90;46.20
15384;DHT22;7790;53.022;12.968;2023-05-07T17:50:20;19.90;46.30
15384;DHT22;7790;53.022;12.968;2023-05-07T17:54:21;19.80;46.40
15384;DHT22;7790;53.022;12.968;2023-05-07T17:58:25;19.80;46.70
15384;DHT22;7790;53.022;12.968;2023-05-07T18:02:26;19.80;46.80
15384;DHT22;7790;53.022;12.968;2023-05-07T18:06:28;19.80;46.80
15384;DHT22;7790;53.022;12.968;2023-05-07T18:10:29;19.80;46.80
15384;DHT22;7790;53.022;12.968;2023-05-07T18:14:29;19.80;46.80
15384;DHT22;7790;53.022;12.968;2023-05-07T18:18:30;19.80;46.80
15384;DHT22;7790;53.022;12.968;2023-05-07T18:22:31;19.80;47.10
15384;DHT22;7790;53.022;12.968;2023-05-07T18:26:32;19.80;47.20
15384;DHT22;7790;53.022;12.968;2023-05-07T18:30:33;19.80;47.10
15384;DHT22;7790;53.022;12.968;2023-05-07T18:34:34;19.80;47.20
15384;DHT22;7790;53.022;12.968;2023-05-07T18:38:35;19.70;47.30
15384;DHT22;7790;53.022;12.968;2023-05-07T18:42:36;19.70;47.40
15384;DHT22;7790;53.022;12.968;2023-05-07T18:46:37;19.70;47.40
15384;DHT22;7790;53.022;12.968;2023-05-07T18:50:43;19.60;47.40
15384;DHT22;7790;53.022;12.968;2023-05-07T18:54:44;19.70;47.50
15384;DHT22;7790;53.022;12.968;2023-05-07T18:58:45;19.60;47.50
15384;DHT22;7790;53.022;12.968;2023-05-07T19:02:46;19.60;47.50
15384;DHT22;7790;53.022;12.968;2023-05-07T19:06:47;19.60;47.40
15384;DHT22;7790;53.022;12.968;2023-05-07T19:10:48;19.60;47.30
15384;DHT22;7790;53.022;12.968;2023-05-07T19:14:49;19.60;47.30
15384;DHT22;7790;53.022;12.968;2023-05-07T19:18:50;19.60;47.40
15384;DHT22;7790;53.022;12.968;2023-05-07T19:22:51;19.60;47.30
15384;DHT22;7790;53.022;12.968;2023-05-07T19:26:52;19.50;47.20
15384;DHT22;7790;53.022;12.968;2023-05-07T19:30:53;19.50;47.20
15384;DHT22;7790;53.022;12.968;2023-05-07T19:34:54;19.50;47.20
15384;DHT22;7790;53.022;12.968;2023-05-07T19:38:55;19.50;47.10
15384;DHT22;7790;53.022;12.968;2023-05-07T19:42:56;19.40;47.00
15384;DHT22;7790;53.022;12.968;2023-05-07T19:46:58;19.50;46.90
15384;DHT22;7790;53.022;12.968;2023-05-07T19:50:59;19.40;46.50
15384;DHT22;7790;53.022;12.968;2023-05-07T19:54:59;19.40;46.30
15384;DHT22;7790;53.022;12.968;2023-05-07T19:59:00;19.40;46.10
15384;DHT22;7790;53.022;12.968;2023-05-07T20:03:01;19.40;45.90
15384;DHT22;7790;53.022;12.968;2023-05-07T20:07:03;19.40;46.00
15384;DHT22;7790;53.022;12.968;2023-05-07T20:11:05;19.40;46.00
15384;DHT22;7790;53.022;12.968;2023-05-07T20:15:07;19.40;46.00
15384;DHT22;7790;53.022;12.968;2023-05-07T20:19:08;19.40;46.00
15384;DHT22;7790;53.022;12.968;2023-05-07T20:23:09;19.30;45.90
15384;DHT22;7790;53.022;12.968;2023-05-07T20:27:09;19.30;45.90
15384;DHT22;7790;53.022;12.968;2023-05-07T20:31:11;19.30;45.90
15384;DHT22;7790;53.022;12.968;2023-05-07T20:35:11;19.30;45.90
15384;DHT22;7790;53.022;12.968;2023-05-07T20:39:12;19.20;45.90
15384;DHT22;7790;53.022;12.968;2023-05-07T20:43:15;19.20;45.90
15384;DHT22;7790;53.022;12.968;2023-05-07T20:47:16;19.20;46.00
15384;DHT22;7790;53.022;12.968;2023-05-07T20:51:17;19.20;46.00
15384;DHT22;7790;53.022;12.968;2023-05-07T20:55:18;19.20;46.00
15384;DHT22;7790;53.022;12.968;2023-05-07T20:59:19;19.20;46.00
15384;DHT22;7790;53.022;12.968;2023-05-07T21:03:20;19.20;46.10
15384;DHT22;7790;53.022;12.968;2023-05-07T21:07:21;19.10;46.60
15384;DHT22;7790;53.022;12.968;2023-05-07T21:11:22;19.10;46.10
15384;DHT22;7790;53.022;12.968;2023-05-07T21:15:23;19.10;46.10
15384;DHT22;7790;53.022;12.968;2023-05-07T21:19:24;19.10;46.20
15384;DHT22;7790;53.022;12.968;2023-05-07T21:23:25;19.10;46.30
15384;DHT22;7790;53.022;12.968;2023-05-07T21:27:29;19.10;46.30
15384;DHT22;7790;53.022;12.968;2023-05-07T21:31:30;19.00;46.30
15384;DHT22;7790;53.022;12.968;2023-05-07T21:35:31;19.00;46.30
15384;DHT22;7790;53.022;12.968;2023-05-07T21:39:32;19.00;46.30
15384;DHT22;7790;53.022;12.968;2023-05-07T21:43:32;19.00;46.40
15384;DHT22;7790;53.022;12.968;2023-05-07T21:47:33;19.00;46.40
15384;DHT22;7790;53.022;12.968;2023-05-07T21:51:34;19.00;46.30
15384;DHT22;7790;53.022;12.968;2023-05-07T21:55:35;19.00;46.40
15384;DHT22;7790;53.022;12.968;2023-05-07T21:59:36;18.90;46.30
15384;DHT22;7790;53.022;12.968;2023-05-07T22:03:38;18.90;46.40
15384;DHT22;7790;53.022;12.968;2023-05-07T22:07:39;18.90;46.40
15384;DHT22;7790;53.022;12.968;2023-05-07T22:11:40;18.90;46.30
15384;DHT22;7790;53.022;12.968;2023-05-07T22:15:41;18.90;46.30
15384;DHT22;7790;53.022;12.968;2023-05-07T22:19:42;18.90;46.30
15384;DHT22;7790;53.022;12.968;2023-05-07T22:23:43;18.90;46.30
15384;DHT22;7790;53.022;12.968;2023-05-07T22:27:44;18.90;46.40
15384;DHT22;7790;53.022;12.968;2023-05-07T22:31:45;18.90;46.40
15384;DHT22;7790;53.022;12.968;2023-05-07T22:35:45;18.80;46.30
15384;DHT22;7790;53.022;12.968;2023-05-07T22:39:46;18.80;46.30
15384;DHT22;7790;53.022;12.968;2023-05-07T22:43:47;18.80;46.30
15384;DHT22;7790;53.022;12.968;2023-05-07T22:47:48;18.80;46.40
15384;DHT22;7790;53.022;12.968;2023-05-07T22:51:49;18.80;46.40
15384;DHT22;7790;53.022;12.968;2023-05-07T22:55:50;18.80;46.50
15384;DHT22;7790;53.022;12.968;2023-05-07T22:59:54;18.80;46.40
15384;DHT22;7790;53.022;12.968;2023-05-07T23:03:55;18.80;46.50
15384;DHT22;7790;53.022;12.968;2023-05-07T23:07:56;18.80;46.50
15384;DHT22;7790;53.022;12.968;2023-05-07T23:11:57;18.80;46.60
15384;DHT22;7790;53.022;12.968;2023-05-07T23:15:58;18.80;46.50
15384;DHT22;7790;53.022;12.968;2023-05-07T23:19:59;18.80;46.60
15384;DHT22;7790;53.022;12.968;2023-05-07T23:24:00;18.70;46.50
15384;DHT22;7790;53.022;12.968;2023-05-07T23:28:01;18.70;46.50
15384;DHT22;7790;53.022;12.968;2023-05-07T23:32:02;18.70;46.60
15384;DHT22;7790;53.022;12.968;2023-05-07T23:36:05;18.70;46.50
15384;DHT22;7790;53.022;12.968;2023-05-07T23:40:09;18.70;46.60
15384;DHT22;7790;53.022;12.968;2023-05-07T23:44:10;18.70;46.70
15384;DHT22;7790;53.022;12.968;2023-05-07T23:48:11;18.70;46.60
15384;DHT22;7790;53.022;12.968;2023-05-07T23:52:11;18.60;46.50
15384;DHT22;7790;53.022;12.968;2023-05-07T23:56:12;18.60;46.60
